createdAt,value
2019-04-05T00:00:56.006Z,44.40
2019-04-05T00:02:59.549Z,46.20
2019-04-05T00:05:03.224Z,44.70
2019-04-05T00:07:07.057Z,44.80
2019-04-05T00:09:10.664Z,45.10
2019-04-05T00:11:14.276Z,44.05
2019-04-05T00:13:17.921Z,56.00
2019-04-05T00:15:21.573Z,54.40
2019-04-05T00:17:25.044Z,44.67
2019-04-05T00:19:28.508Z,43.13
2019-04-05T00:21:32.959Z,41.98
2019-04-05T00:23:36.496Z,48.65
2019-04-05T00:25:40.038Z,49.35
2019-04-05T00:27:43.861Z,53.33
2019-04-05T00:29:47.985Z,44.40
2019-04-05T00:31:51.521Z,43.10
2019-04-05T00:33:55.261Z,41.77
2019-04-05T00:35:58.794Z,41.80
2019-04-05T00:38:02.531Z,48.48
2019-04-05T00:40:08.668Z,44.50
2019-04-05T00:42:12.131Z,48.48
2019-04-05T00:44:15.597Z,55.60
2019-04-05T00:46:19.099Z,59.63
2019-04-05T00:48:22.732Z,45.85
2019-04-05T00:50:26.380Z,50.95
2019-04-05T00:52:29.845Z,44.03
2019-04-05T00:54:33.488Z,48.55
2019-04-05T00:56:37.096Z,41.92
2019-04-05T00:58:41.100Z,50.95
2019-04-05T01:00:44.720Z,50.23
2019-04-05T01:02:48.300Z,47.38
2019-04-05T01:04:51.915Z,53.08
2019-04-05T01:06:55.585Z,50.12
2019-04-05T01:08:59.198Z,55.23
2019-04-05T01:11:02.975Z,52.62
2019-04-05T01:13:06.520Z,56.00
2019-04-05T01:15:11.992Z,57.67
2019-04-05T01:17:24.737Z,60.90
2019-04-05T01:19:21.173Z,49.05
2019-04-05T01:21:25.504Z,49.23
2019-04-05T01:23:29.807Z,48.87
2019-04-05T01:25:35.710Z,51.35
2019-04-05T01:27:40.811Z,46.92
2019-04-05T01:29:45.229Z,61.85
2019-04-05T01:31:48.760Z,44.70
2019-04-05T01:33:52.361Z,49.23
2019-04-05T01:35:55.940Z,44.70
2019-04-05T01:37:59.865Z,51.00
2019-04-05T01:40:03.636Z,43.95
2019-04-05T01:42:07.478Z,51.48
2019-04-05T01:44:11.637Z,43.28
2019-04-05T01:46:15.512Z,48.40
2019-04-05T01:48:19.333Z,46.95
2019-04-05T01:50:23.236Z,51.95
2019-04-05T01:52:27.224Z,78.22
2019-04-05T01:54:30.762Z,54.35
2019-04-05T01:56:34.464Z,54.08
2019-04-05T01:58:37.989Z,49.80
2019-04-05T02:00:41.918Z,48.33
2019-04-05T02:02:45.720Z,49.15
2019-04-05T02:04:49.332Z,50.95
2019-04-05T02:06:53.325Z,44.58
2019-04-05T02:08:57.133Z,47.90
2019-04-05T02:11:00.741Z,51.92
2019-04-05T02:13:04.407Z,54.18
2019-04-05T02:15:10.492Z,55.23
2019-04-05T02:17:14.168Z,51.50
2019-04-05T02:19:17.761Z,55.50
2019-04-05T02:21:21.288Z,55.20
2019-04-05T02:23:24.964Z,55.38
2019-04-05T02:25:28.676Z,53.85
2019-04-05T02:27:32.208Z,55.17
2019-04-05T02:29:35.856Z,47.30
2019-04-05T02:31:39.513Z,49.33
2019-04-05T02:33:43.149Z,55.98
2019-04-05T02:35:46.753Z,60.03
2019-04-05T02:37:50.651Z,59.70
2019-04-05T02:39:54.326Z,58.78
2019-04-05T02:41:58.097Z,56.08
2019-04-05T02:44:01.901Z,57.95
2019-04-05T02:46:22.252Z,52.75
2019-04-05T02:48:13.065Z,59.25
2019-04-05T02:50:18.441Z,57.73
2019-04-05T02:52:23.117Z,50.17
2019-04-05T02:54:27.949Z,55.03
2019-04-05T02:56:33.334Z,55.30
2019-04-05T02:58:38.362Z,52.78
2019-04-05T03:00:44.503Z,57.13
2019-04-05T03:02:49.353Z,47.48
2019-04-05T03:04:53.028Z,53.98
2019-04-05T03:06:57.245Z,51.68
2019-04-05T03:09:01.970Z,51.85
2019-04-05T03:11:08.059Z,52.73
2019-04-05T03:13:12.698Z,54.63
2019-04-05T03:15:16.426Z,58.58
2019-04-05T03:17:21.787Z,53.85
2019-04-05T03:19:28.326Z,53.20
2019-04-05T03:21:35.027Z,57.65
2019-04-05T03:23:41.681Z,54.53
2019-04-05T03:25:48.186Z,57.45
2019-04-05T03:27:51.465Z,54.88
2019-04-05T03:29:56.938Z,55.88
2019-04-05T03:32:00.713Z,62.50
2019-04-05T03:34:05.603Z,55.92
2019-04-05T03:36:09.346Z,56.88
2019-04-05T03:38:13.401Z,61.95
2019-04-05T03:40:17.100Z,54.93
2019-04-05T03:42:20.801Z,68.22
2019-04-05T03:44:24.505Z,56.80
2019-04-05T03:46:28.569Z,59.50
2019-04-05T03:48:32.874Z,60.52
2019-04-05T03:50:36.468Z,59.08
2019-04-05T03:52:40.270Z,54.45
2019-04-05T03:54:44.502Z,53.05
2019-04-05T03:56:48.541Z,54.70
2019-04-05T03:58:52.236Z,54.40
2019-04-05T04:00:56.079Z,60.35
2019-04-05T04:02:59.853Z,65.67
2019-04-05T04:05:03.752Z,57.80
2019-04-05T04:07:07.279Z,60.10
2019-04-05T04:09:11.852Z,61.20
2019-04-05T04:11:16.568Z,71.45
2019-04-05T04:13:20.812Z,62.80
2019-04-05T04:15:25.882Z,77.22
2019-04-05T04:17:29.464Z,66.05
2019-04-05T04:19:33.648Z,58.52
2019-04-05T04:21:49.155Z,58.92
2019-04-05T04:23:54.653Z,54.70
2019-04-05T04:25:58.817Z,55.20
2019-04-05T04:28:02.686Z,64.77
2019-04-05T04:30:07.680Z,58.08
2019-04-05T04:32:11.777Z,63.35
2019-04-05T04:34:15.731Z,62.55
2019-04-05T04:36:19.833Z,50.40
2019-04-05T04:38:24.086Z,57.88
2019-04-05T04:40:27.725Z,53.33
2019-04-05T04:42:32.938Z,55.58
2019-04-05T04:44:36.884Z,56.35
2019-04-05T04:46:40.882Z,64.40
2019-04-05T04:48:45.245Z,60.98
2019-04-05T04:50:49.216Z,64.82
2019-04-05T04:52:53.232Z,57.75
2019-04-05T04:54:57.366Z,60.75
2019-04-05T04:57:01.403Z,61.35
2019-04-05T04:59:05.172Z,51.98
2019-04-05T05:01:08.982Z,55.38
2019-04-05T05:03:12.861Z,54.00
2019-04-05T05:05:17.064Z,67.62
2019-04-05T05:07:20.836Z,64.97
2019-04-05T05:09:24.605Z,55.48
2019-04-05T05:11:28.496Z,54.58
2019-04-05T05:13:32.029Z,52.08
2019-04-05T05:15:36.089Z,54.40
2019-04-05T05:17:39.784Z,66.67
2019-04-05T05:19:43.430Z,51.60
2019-04-05T05:21:47.306Z,52.93
2019-04-05T05:23:51.115Z,47.48
2019-04-05T05:25:54.932Z,50.67
2019-04-05T05:27:58.788Z,54.30
2019-04-05T05:30:03.139Z,56.85
2019-04-05T05:32:09.552Z,49.45
2019-04-05T05:34:12.764Z,53.13
2019-04-05T05:36:17.169Z,47.13
2019-04-05T05:38:21.515Z,49.20
2019-04-05T05:40:34.597Z,60.25
2019-04-05T05:42:31.221Z,57.95
2019-04-05T05:44:35.661Z,50.35
2019-04-05T05:46:39.202Z,46.02
2019-04-05T05:48:44.278Z,46.60
2019-04-05T05:50:48.499Z,47.58
2019-04-05T05:52:52.465Z,42.62
2019-04-05T05:54:56.436Z,50.38
2019-04-05T05:57:00.641Z,53.85
2019-04-05T05:59:04.512Z,44.65
2019-04-05T06:01:08.101Z,46.15
2019-04-05T06:03:12.048Z,47.80
2019-04-05T06:05:16.021Z,49.18
2019-04-05T06:07:20.158Z,43.68
2019-04-05T06:09:24.129Z,46.53
2019-04-05T06:11:27.772Z,58.58
2019-04-05T06:13:31.433Z,42.33
2019-04-05T06:15:37.421Z,42.48
2019-04-05T06:17:40.494Z,42.25
2019-04-05T06:19:44.108Z,41.00
2019-04-05T06:21:47.714Z,46.83
2019-04-05T06:23:51.594Z,43.78
2019-04-05T06:25:55.172Z,36.63
2019-04-05T06:27:59.961Z,39.75
2019-04-05T06:30:05.072Z,47.62
2019-04-05T06:32:08.847Z,45.83
2019-04-05T06:34:12.326Z,42.75
2019-04-05T06:36:15.865Z,38.95
2019-04-05T06:38:19.586Z,51.75
2019-04-05T06:40:23.341Z,38.42
2019-04-05T06:42:26.913Z,46.08
2019-04-05T06:44:30.388Z,36.77
2019-04-05T06:46:34.156Z,35.80
2019-04-05T06:48:37.624Z,39.53
2019-04-05T06:50:41.159Z,44.08
2019-04-05T06:52:45.153Z,46.05
2019-04-05T06:54:48.656Z,37.05
2019-04-05T06:56:53.049Z,40.80
2019-04-05T06:58:56.593Z,39.00
2019-04-05T07:01:00.130Z,40.75
2019-04-05T07:03:03.861Z,37.42
2019-04-05T07:05:07.744Z,34.65
2019-04-05T07:07:12.068Z,39.08
2019-04-05T07:09:15.612Z,31.97
2019-04-05T07:11:19.453Z,32.03
2019-04-05T07:13:23.333Z,38.73
2019-04-05T07:15:26.944Z,37.25
2019-04-05T07:17:30.766Z,32.23
2019-04-05T07:19:34.764Z,34.43
2019-04-05T07:21:38.508Z,43.20
2019-04-05T07:23:42.045Z,39.80
2019-04-05T07:25:45.653Z,42.13
2019-04-05T07:27:49.156Z,36.15
2019-04-05T07:29:52.957Z,33.80
2019-04-05T07:31:56.529Z,38.30
2019-04-05T07:34:00.388Z,54.70
2019-04-05T07:36:03.926Z,37.40
2019-04-05T07:38:09.642Z,39.00
2019-04-05T07:40:15.225Z,35.10
2019-04-05T07:42:18.765Z,40.78
2019-04-05T07:44:22.501Z,38.42
2019-04-05T07:46:25.968Z,40.25
2019-04-05T07:48:29.442Z,34.60
2019-04-05T07:50:33.338Z,35.20
2019-04-05T07:52:37.205Z,38.67
2019-04-05T07:54:40.808Z,30.15
2019-04-05T07:56:46.224Z,38.55
2019-04-05T07:58:50.234Z,36.40
2019-04-05T08:00:57.280Z,31.02
2019-04-05T08:03:01.065Z,31.77
2019-04-05T08:05:07.132Z,37.08
2019-04-05T08:07:11.426Z,38.33
2019-04-05T08:09:16.396Z,38.08
2019-04-05T08:11:20.742Z,37.08
2019-04-05T08:13:26.868Z,40.63
2019-04-05T08:15:30.772Z,42.55
2019-04-05T08:17:34.360Z,41.37
2019-04-05T08:19:37.901Z,38.20
2019-04-05T08:21:41.464Z,39.05
2019-04-05T08:23:45.033Z,48.30
2019-04-05T08:25:48.865Z,37.23
2019-04-05T08:27:52.739Z,35.63
2019-04-05T08:29:56.289Z,38.73
2019-04-05T08:31:59.937Z,43.20
2019-04-05T08:34:03.837Z,33.63
2019-04-05T08:36:07.416Z,36.88
2019-04-05T08:38:11.563Z,35.85
2019-04-05T08:40:15.347Z,36.33
2019-04-05T08:42:19.229Z,35.68
2019-04-05T08:44:23.159Z,35.50
2019-04-05T08:46:26.711Z,36.60
2019-04-05T08:48:30.249Z,35.23
2019-04-05T08:50:34.646Z,36.93
2019-04-05T08:52:38.470Z,40.60
2019-04-05T08:54:42.374Z,34.35
2019-04-05T08:56:45.993Z,38.75
2019-04-05T08:58:49.603Z,57.23
2019-04-05T09:00:53.154Z,33.73
2019-04-05T09:02:57.361Z,38.05
2019-04-05T09:05:01.385Z,35.25
2019-04-05T09:07:05.032Z,32.58
2019-04-05T09:09:08.578Z,35.33
2019-04-05T09:11:12.985Z,108.97
2019-04-05T09:13:17.030Z,52.75
2019-04-05T09:15:20.600Z,25.80
2019-04-05T09:17:24.068Z,29.50
2019-04-05T09:19:29.510Z,28.92
2019-04-05T09:21:33.044Z,22.85
2019-04-05T09:23:36.512Z,28.12
2019-04-05T09:25:40.342Z,27.42
2019-04-05T09:27:43.872Z,24.95
2019-04-05T09:29:48.036Z,22.22
2019-04-05T09:31:51.941Z,21.57
2019-04-05T09:33:55.754Z,27.48
2019-04-05T09:35:59.657Z,24.05
2019-04-05T09:38:04.051Z,26.52
2019-04-05T09:40:07.955Z,28.12
2019-04-05T09:42:12.373Z,26.57
2019-04-05T09:44:15.914Z,22.35
2019-04-05T09:46:19.893Z,23.30
2019-04-05T09:48:23.424Z,27.98
2019-04-05T09:50:27.074Z,30.00
2019-04-05T09:52:30.888Z,25.02
2019-04-05T09:54:34.366Z,20.88
2019-04-05T09:56:37.946Z,22.87
2019-04-05T09:58:41.785Z,29.02
2019-04-05T10:00:46.278Z,23.05
2019-04-05T10:02:50.182Z,27.75
2019-04-05T10:04:53.717Z,32.83
2019-04-05T10:06:57.505Z,25.57
2019-04-05T10:09:00.983Z,28.67
2019-04-05T10:11:04.732Z,29.95
2019-04-05T10:13:09.768Z,28.55
2019-04-05T10:15:14.161Z,24.12
2019-04-05T10:17:18.455Z,28.77
2019-04-05T10:19:22.265Z,26.52
2019-04-05T10:21:25.819Z,28.60
2019-04-05T10:23:29.665Z,25.45
2019-04-05T10:25:33.200Z,19.32
2019-04-05T10:27:36.673Z,23.20
2019-04-05T10:29:40.873Z,60.35
2019-04-05T10:31:44.416Z,21.02
2019-04-05T10:33:48.293Z,22.67
2019-04-05T10:35:52.083Z,18.37
2019-04-05T10:37:58.297Z,20.77
2019-04-05T10:40:01.414Z,20.88
2019-04-05T10:42:06.561Z,23.92
2019-04-05T10:44:11.744Z,24.82
2019-04-05T10:46:15.292Z,20.90
2019-04-05T10:48:18.756Z,19.70
2019-04-05T10:50:23.473Z,18.25
2019-04-05T10:52:27.301Z,21.33
2019-04-05T10:54:30.772Z,23.57
2019-04-05T10:56:34.243Z,22.52
2019-04-05T10:58:37.792Z,18.87
2019-04-05T11:00:41.723Z,19.02
2019-04-05T11:02:45.544Z,24.63
2019-04-05T11:04:49.937Z,21.15
2019-04-05T11:06:53.481Z,25.60
2019-04-05T11:08:57.180Z,24.10
2019-04-05T11:11:00.645Z,17.73
2019-04-05T11:13:04.186Z,27.25
2019-04-05T11:15:09.108Z,20.65
2019-04-05T11:17:12.649Z,18.17
2019-04-05T11:19:16.321Z,19.92
2019-04-05T11:21:19.862Z,20.77
2019-04-05T11:23:23.476Z,26.85
2019-04-05T11:25:27.328Z,20.90
2019-04-05T11:27:31.249Z,31.87
2019-04-05T11:29:34.818Z,23.60
2019-04-05T11:31:38.413Z,16.80
2019-04-05T11:33:42.323Z,17.75
2019-04-05T11:35:46.595Z,30.55
2019-04-05T11:37:51.167Z,25.72
2019-04-05T11:39:56.488Z,20.17
2019-04-05T11:42:00.497Z,17.95
2019-04-05T11:44:04.634Z,23.02
2019-04-05T11:46:08.178Z,15.98
2019-04-05T11:48:11.945Z,16.57
2019-04-05T11:50:15.989Z,16.32
2019-04-05T11:52:20.057Z,22.40
2019-04-05T11:54:23.609Z,17.00
2019-04-05T11:56:27.217Z,24.70
2019-04-05T11:58:30.797Z,21.80
2019-04-05T12:00:38.472Z,23.18
2019-04-05T12:02:44.090Z,18.25
2019-04-05T12:04:47.692Z,19.07
2019-04-05T12:06:52.133Z,19.87
2019-04-05T12:08:56.136Z,18.40
2019-04-05T12:10:59.885Z,19.98
2019-04-05T12:13:03.791Z,16.85
2019-04-05T12:15:07.725Z,23.47
2019-04-05T12:17:11.268Z,22.25
2019-04-05T12:19:15.088Z,17.92
2019-04-05T12:21:20.936Z,21.48
2019-04-05T12:23:24.256Z,22.35
2019-04-05T12:25:27.913Z,14.10
2019-04-05T12:27:31.383Z,17.60
2019-04-05T12:29:34.853Z,24.20
2019-04-05T12:31:38.956Z,21.30
2019-04-05T12:33:42.866Z,19.55
2019-04-05T12:35:46.333Z,16.55
2019-04-05T12:37:52.983Z,20.80
2019-04-05T12:39:56.778Z,16.37
2019-04-05T12:42:00.565Z,18.02
2019-04-05T12:44:04.365Z,19.42
2019-04-05T12:46:08.005Z,16.80
2019-04-05T12:48:11.572Z,17.07
2019-04-05T12:50:17.000Z,17.80
2019-04-05T12:52:22.952Z,14.53
2019-04-05T12:54:26.488Z,15.00
2019-04-05T12:56:30.470Z,14.90
2019-04-05T12:58:33.940Z,19.05
2019-04-05T13:00:38.942Z,18.15
2019-04-05T13:02:43.573Z,21.57
2019-04-05T13:04:48.411Z,24.27
2019-04-05T13:06:53.698Z,16.15
2019-04-05T13:08:57.280Z,15.85
2019-04-05T13:11:01.088Z,14.00
2019-04-05T13:13:04.944Z,25.08
2019-04-05T13:15:13.871Z,18.30
2019-04-05T13:17:14.249Z,16.37
2019-04-05T13:19:17.914Z,19.67
2019-04-05T13:21:27.256Z,14.95
2019-04-05T13:23:27.405Z,14.53
2019-04-05T13:25:31.232Z,20.25
2019-04-05T13:27:35.037Z,15.05
2019-04-05T13:29:38.906Z,15.15
2019-04-05T13:31:42.549Z,19.95
2019-04-05T13:33:46.008Z,15.25
2019-04-05T13:35:49.908Z,12.13
2019-04-05T13:37:53.708Z,13.70
2019-04-05T13:39:57.687Z,12.03
2019-04-05T13:42:03.061Z,11.83
2019-04-05T13:44:06.664Z,13.25
2019-04-05T13:46:21.396Z,15.20
2019-04-05T13:48:15.597Z,11.53
2019-04-05T13:50:21.056Z,14.63
2019-04-05T13:52:24.519Z,13.62
2019-04-05T13:54:28.726Z,12.50
2019-04-05T13:56:32.212Z,11.85
2019-04-05T13:58:35.890Z,11.50
2019-04-05T14:00:39.413Z,12.00
2019-04-05T14:02:43.761Z,13.18
2019-04-05T14:04:47.369Z,12.55
2019-04-05T14:06:53.251Z,14.15
2019-04-05T14:08:56.029Z,15.32
2019-04-05T14:10:59.592Z,12.90
2019-04-05T14:13:03.229Z,11.48
2019-04-05T14:15:10.711Z,13.20
2019-04-05T14:17:13.774Z,13.90
2019-04-05T14:19:19.149Z,10.50
2019-04-05T14:21:22.912Z,11.50
2019-04-05T14:23:26.482Z,13.40
2019-04-05T14:25:30.340Z,13.90
2019-04-05T14:27:35.153Z,14.47
2019-04-05T14:29:39.189Z,19.15
2019-04-05T14:31:42.881Z,13.28
2019-04-05T14:33:46.440Z,14.68
2019-04-05T14:35:49.984Z,18.10
2019-04-05T14:37:55.131Z,15.48
2019-04-05T14:39:58.745Z,13.70
2019-04-05T14:42:09.663Z,11.80
2019-04-05T14:44:08.570Z,19.85
2019-04-05T14:46:12.121Z,12.73
2019-04-05T14:48:16.433Z,14.40
2019-04-05T14:50:20.233Z,11.48
2019-04-05T14:52:25.586Z,11.57
2019-04-05T14:54:30.369Z,10.72
2019-04-05T14:56:34.304Z,11.90
2019-04-05T14:58:38.184Z,13.28
2019-04-05T15:00:41.793Z,13.95
2019-04-05T15:02:46.031Z,15.85
2019-04-05T15:04:49.803Z,15.65
2019-04-05T15:06:53.336Z,10.55
2019-04-05T15:08:57.097Z,14.00
2019-04-05T15:11:01.024Z,9.10
2019-04-05T15:13:05.034Z,15.98
2019-04-05T15:15:09.344Z,13.50
2019-04-05T15:17:13.044Z,10.95
2019-04-05T15:19:16.925Z,12.03
2019-04-05T15:21:20.465Z,11.83
2019-04-05T15:23:24.429Z,19.52
2019-04-05T15:25:27.965Z,15.40
2019-04-05T15:27:32.099Z,16.62
2019-04-05T15:29:35.965Z,11.20
2019-04-05T15:31:39.497Z,13.72
2019-04-05T15:33:43.315Z,18.60
2019-04-05T15:35:46.852Z,25.08
2019-04-05T15:37:50.319Z,20.70
2019-04-05T15:39:54.137Z,16.20
2019-04-05T15:41:58.033Z,22.48
2019-04-05T15:44:01.579Z,19.48
2019-04-05T15:48:09.749Z,19.10
2019-04-05T15:50:13.457Z,21.27
2019-04-05T15:52:18.959Z,17.95
2019-04-05T15:54:22.545Z,17.50
2019-04-05T15:56:26.089Z,19.17
2019-04-05T15:58:31.532Z,16.87
2019-04-05T16:00:40.945Z,16.23
2019-04-05T16:02:44.870Z,17.45
2019-04-05T16:04:48.789Z,17.75
2019-04-05T16:06:52.305Z,17.80
2019-04-05T16:08:56.185Z,33.40
2019-04-05T16:11:00.097Z,46.75
2019-04-05T16:13:08.073Z,23.95
2019-04-05T16:15:12.617Z,36.23
2019-04-05T16:17:16.527Z,32.88
2019-04-05T16:19:21.433Z,18.45
2019-04-05T16:21:25.237Z,21.25
2019-04-05T16:23:28.768Z,28.50
2019-04-05T16:25:32.373Z,47.78
2019-04-05T16:27:35.857Z,24.23
2019-04-05T16:29:39.393Z,49.75
2019-04-05T16:31:42.863Z,62.95
2019-04-05T16:33:46.516Z,21.87
2019-04-05T16:35:50.811Z,87.47
2019-04-05T16:37:54.419Z,39.25
2019-04-05T16:39:58.940Z,50.23
2019-04-05T16:42:03.279Z,31.23
2019-04-05T16:44:07.201Z,49.70
2019-04-05T16:46:10.749Z,110.85
2019-04-05T16:48:14.589Z,155.65
2019-04-05T16:50:21.191Z,147.32
2019-04-05T16:52:23.918Z,127.50
2019-04-05T16:54:27.749Z,140.50
2019-04-05T16:56:31.469Z,145.80
2019-04-05T16:58:35.337Z,88.22
2019-04-05T17:00:40.022Z,117.40
2019-04-05T17:02:44.872Z,151.18
2019-04-05T17:04:48.492Z,65.15
2019-04-05T17:06:52.073Z,244.00
2019-04-05T17:08:55.544Z,169.13
2019-04-05T17:10:59.101Z,59.20
2019-04-05T17:13:03.542Z,130.65
2019-04-05T17:15:08.020Z,43.33
2019-04-05T17:17:12.582Z,45.60
2019-04-05T17:19:16.129Z,37.33
2019-04-05T17:21:19.901Z,34.18
2019-04-05T17:23:23.444Z,42.48
2019-04-05T17:25:27.094Z,54.67
2019-04-05T17:27:31.206Z,40.15
2019-04-05T17:29:34.740Z,60.48
2019-04-05T17:31:38.231Z,57.17
2019-04-05T17:33:41.869Z,47.70
2019-04-05T17:35:45.408Z,59.08
2019-04-05T17:37:49.037Z,59.27
2019-04-05T17:39:52.898Z,46.95
2019-04-05T17:41:56.436Z,51.25
2019-04-05T17:44:00.421Z,47.65
2019-04-05T17:46:04.333Z,46.68
2019-04-05T17:48:07.879Z,53.23
2019-04-05T17:50:14.738Z,39.33
2019-04-05T17:52:19.265Z,36.55
2019-04-05T17:54:22.832Z,48.50
2019-04-05T17:56:26.712Z,46.83
2019-04-05T17:58:32.649Z,39.75
2019-04-05T18:00:36.820Z,35.45
2019-04-05T18:02:40.732Z,35.23
2019-04-05T18:04:44.308Z,39.08
2019-04-05T18:06:50.281Z,36.45
2019-04-05T18:08:55.834Z,48.15
2019-04-05T18:10:59.838Z,43.05
2019-04-05T18:13:03.440Z,54.53
2019-04-05T18:15:07.214Z,55.85
2019-04-05T18:17:11.067Z,65.90
2019-04-05T18:19:14.689Z,43.28
2019-04-05T18:21:18.625Z,38.40
2019-04-05T18:23:25.461Z,49.75
2019-04-05T18:25:28.345Z,51.42
2019-04-05T18:27:32.113Z,51.02
2019-04-05T18:29:36.517Z,54.23
2019-04-05T18:31:39.980Z,44.48
2019-04-05T18:33:43.644Z,53.73
2019-04-05T18:35:47.294Z,53.65
2019-04-05T18:37:50.860Z,57.17
2019-04-05T18:39:54.753Z,66.10
2019-04-05T18:41:58.612Z,40.38
2019-04-05T18:44:02.211Z,49.50
2019-04-05T18:46:06.145Z,36.95
2019-04-05T18:48:10.536Z,35.52
2019-04-05T18:50:14.620Z,34.48
2019-04-05T18:52:18.591Z,37.60
2019-04-05T18:54:22.969Z,41.63
2019-04-05T18:56:26.792Z,37.80
2019-04-05T18:58:30.597Z,39.90
2019-04-05T19:00:34.177Z,43.63
2019-04-05T19:02:37.969Z,35.43
2019-04-05T19:04:41.515Z,45.17
2019-04-05T19:06:45.057Z,40.65
2019-04-05T19:08:48.927Z,48.25
2019-04-05T19:10:52.537Z,39.20
2019-04-05T19:12:59.129Z,44.10
2019-04-05T19:15:01.751Z,33.65
2019-04-05T19:17:05.646Z,43.20
2019-04-05T19:19:09.742Z,44.45
2019-04-05T19:21:13.214Z,43.17
2019-04-05T19:23:16.756Z,49.40
2019-04-05T19:25:20.412Z,44.38
2019-04-05T19:27:24.358Z,46.42
2019-04-05T19:29:28.857Z,39.63
2019-04-05T19:48:31.098Z,59.42
2019-04-05T19:50:20.857Z,44.80
2019-04-05T19:52:26.145Z,38.48
2019-04-05T19:54:29.948Z,28.77
2019-04-05T19:56:33.419Z,33.70
2019-04-05T19:58:39.927Z,36.95
2019-04-05T20:00:43.821Z,43.15
2019-04-05T20:02:47.665Z,42.88
2019-04-05T20:04:54.694Z,50.60
2019-04-05T20:06:58.775Z,46.08
2019-04-05T20:09:03.068Z,42.95
2019-04-05T20:11:06.680Z,43.40
2019-04-05T20:13:10.217Z,39.88
2019-04-05T20:15:14.276Z,43.20
2019-04-05T20:17:18.045Z,43.17
2019-04-05T20:19:24.572Z,51.48
2019-04-05T20:21:28.113Z,40.43
2019-04-05T20:23:31.657Z,37.35
2019-04-05T20:25:38.352Z,58.05
2019-04-05T20:27:43.718Z,41.28
2019-04-05T20:29:48.533Z,37.33
2019-04-05T20:31:52.913Z,49.88
2019-04-05T20:33:58.401Z,41.25
2019-04-05T20:36:01.696Z,32.42
2019-04-05T20:38:06.095Z,43.83
2019-04-05T20:40:10.229Z,36.60
2019-04-05T20:42:15.216Z,34.48
2019-04-05T20:44:21.990Z,60.85
2019-04-05T20:46:25.803Z,83.47
2019-04-05T20:48:30.185Z,44.45
2019-04-05T20:50:34.021Z,49.85
2019-04-05T20:52:39.672Z,61.05
2019-04-05T20:54:45.001Z,117.65
2019-04-05T20:56:50.010Z,45.17
2019-04-05T20:58:53.837Z,44.27
2019-04-05T21:00:59.314Z,43.13
2019-04-05T21:03:02.778Z,39.95
2019-04-05T21:05:07.398Z,39.05
2019-04-05T21:07:10.931Z,37.60
2019-04-05T21:09:14.425Z,40.67
2019-04-05T21:11:17.965Z,36.58
2019-04-05T21:13:21.437Z,36.48
2019-04-05T21:15:25.013Z,33.55
2019-04-05T21:17:28.485Z,33.67
2019-04-05T21:19:32.028Z,36.20
2019-04-05T21:21:35.534Z,33.75
2019-04-05T21:23:39.079Z,43.60
2019-04-05T21:25:42.960Z,41.53
2019-04-05T21:27:47.860Z,39.55
2019-04-05T21:29:51.332Z,36.65
2019-04-05T21:31:54.869Z,40.52
2019-04-05T21:33:58.416Z,34.75
2019-04-05T21:36:01.882Z,36.38
2019-04-05T21:38:05.625Z,36.83
2019-04-05T21:40:09.920Z,33.02
2019-04-05T21:42:13.388Z,34.58
2019-04-05T21:44:17.035Z,37.93
2019-04-05T21:46:20.880Z,41.73
2019-04-05T21:48:24.354Z,40.98
2019-04-05T21:50:27.896Z,34.13
2019-04-05T21:52:31.536Z,33.15
2019-04-05T21:54:46.802Z,44.08
2019-04-05T21:56:41.140Z,34.03
2019-04-05T21:58:44.607Z,37.55
2019-04-05T22:00:50.534Z,39.45
2019-04-05T22:02:54.327Z,36.15
2019-04-05T22:04:58.019Z,37.42
2019-04-05T22:07:01.553Z,32.93
2019-04-05T22:09:08.043Z,35.10
2019-04-05T22:11:11.572Z,32.30
2019-04-05T22:13:15.341Z,47.20
2019-04-05T22:15:19.821Z,39.03
2019-04-05T22:17:23.301Z,36.60
2019-04-05T22:19:27.158Z,41.15
2019-04-05T22:21:30.805Z,40.88
2019-04-05T22:23:34.267Z,41.60
2019-04-05T22:25:37.739Z,36.55
2019-04-05T22:27:41.540Z,39.70
2019-04-05T22:29:45.008Z,44.25
2019-04-05T22:31:48.480Z,38.13
2019-04-05T22:33:52.124Z,36.42
2019-04-05T22:35:55.596Z,41.65
2019-04-05T22:37:59.140Z,44.42
2019-04-05T22:40:02.612Z,41.23
2019-04-05T22:42:06.692Z,39.27
2019-04-05T22:44:10.160Z,31.57
2019-04-05T22:46:13.921Z,39.23
2019-04-05T22:48:17.465Z,38.50
2019-04-05T22:50:21.100Z,39.35
2019-04-05T22:52:25.016Z,31.12
2019-04-05T22:54:29.332Z,40.12
2019-04-05T22:56:32.797Z,34.63
2019-04-05T22:58:36.340Z,44.60
2019-04-05T23:00:39.804Z,40.00
2019-04-05T23:02:43.397Z,45.33
2019-04-05T23:04:46.950Z,36.33
2019-04-05T23:06:50.492Z,41.00
2019-04-05T23:08:54.032Z,42.17
2019-04-05T23:10:57.734Z,39.67
2019-04-05T23:13:01.332Z,41.83
2019-04-05T23:15:07.596Z,38.90
2019-04-05T23:17:11.132Z,38.23
2019-04-05T23:19:14.700Z,48.98
2019-04-05T23:21:18.461Z,47.05
2019-04-05T23:23:22.000Z,46.30
2019-04-05T23:25:25.534Z,38.48
2019-04-05T23:27:29.052Z,37.83
2019-04-05T23:29:32.583Z,34.00
2019-04-05T23:31:36.136Z,39.15
2019-04-05T23:33:39.674Z,35.30
2019-04-05T23:35:43.205Z,35.00
2019-04-05T23:37:46.752Z,41.80
2019-04-05T23:39:50.480Z,41.35
2019-04-05T23:41:54.329Z,36.98
2019-04-05T23:43:57.821Z,48.60
2019-04-05T23:46:01.281Z,42.33
2019-04-05T23:48:05.193Z,46.42
2019-04-05T23:50:09.212Z,37.90
2019-04-05T23:52:12.748Z,42.20
2019-04-05T23:54:17.217Z,38.25
2019-04-05T23:56:21.148Z,37.45
2019-04-05T23:58:24.784Z,43.33
